Time;durP1;ratioP1;P1;durP2;ratioP2;P2;SDS_P1;SDS_P2;PMS_P1;PMS_P2;Temp;Humidity;BMP_temperature;BMP_pressure;BME280_temperature;BME280_humidity;BME280_pressure;Samples;Min_cycle;Max_cycle;Signal;HPM_P1;HPM_P2
2021/05/25 00:00:17;;;;;;;1.47;0.70;;;11.00;63.50;;;11.57;52.90;97431.38;5045168;28;20345;-49
2021/05/25 00:02:47;;;;;;;2.97;0.90;;;11.10;63.60;;;11.55;52.40;97441.38;5045216;28;20350;-54
2021/05/25 00:05:22;;;;;;;0.73;0.70;;;11.00;63.10;;;11.51;53.04;97455.22;5042157;28;20048;-48
2021/05/25 00:07:51;;;;;;;2.53;0.82;;;11.00;63.10;;;11.45;53.05;97459.41;5044649;28;20246;-48
2021/05/25 00:10:21;;;;;;;1.77;0.60;;;11.00;63.60;;;11.44;52.89;97465.75;5044482;28;20059;-51
2021/05/25 00:12:49;;;;;;;2.27;0.90;;;10.90;63.20;;;11.38;52.72;97453.94;5044954;28;20065;-52
2021/05/25 00:15:22;;;;;;;1.05;0.75;;;11.00;62.80;;;11.20;52.71;97448.78;5045752;28;20071;-50
2021/05/25 00:17:52;;;;;;;2.42;1.05;;;10.80;62.80;;;11.19;52.70;97444.47;5045813;28;20053;-51
2021/05/25 00:20:22;;;;;;;4.07;0.93;;;10.80;62.90;;;11.16;52.58;97439.47;5046429;28;20048;-48
2021/05/25 00:22:51;;;;;;;3.23;0.90;;;10.80;62.60;;;11.13;52.76;97436.34;5045474;28;20084;-53
2021/05/25 00:25:21;;;;;;;2.70;0.93;;;10.80;62.30;;;11.11;52.50;97436.50;5044857;28;20060;-51
2021/05/25 00:27:50;;;;;;;2.10;0.80;;;10.70;62.00;;;11.13;52.11;97423.03;5045117;28;20045;-49
2021/05/25 00:30:22;;;;;;;2.13;0.90;;;10.80;62.00;;;11.13;52.12;97421.19;5044255;28;20242;-50
2021/05/25 00:32:50;;;;;;;1.80;0.70;;;10.80;61.70;;;11.14;51.98;97425.50;5043356;28;20102;-50
2021/05/25 00:35:18;;;;;;;1.63;0.80;;;10.80;61.70;;;11.15;52.13;97424.50;5044210;28;20070;-51
2021/05/25 00:37:47;;;;;;;1.33;0.70;;;10.80;61.70;;;11.18;51.85;97434.81;5043536;28;20059;-52
2021/05/25 00:40:15;;;;;;;1.73;0.87;;;10.80;61.80;;;11.16;51.84;97439.47;5043178;28;20443;-51
2021/05/25 00:42:45;;;;;;;1.33;0.90;;;10.70;61.90;;;11.05;52.37;97442.53;5045406;28;20048;-52
2021/05/25 00:45:16;;;;;;;1.37;0.83;;;10.70;62.10;;;10.98;52.80;97431.69;5044608;28;20400;-53
2021/05/25 00:47:44;;;;;;;2.37;0.80;;;10.80;62.00;;;10.97;52.55;97437.19;5044723;28;20037;-51
2021/05/25 00:50:24;;;;;;;1.53;0.80;;;10.70;61.80;;;10.92;52.41;97437.69;5045616;28;20071;-49
2021/05/25 00:52:56;;;;;;;1.43;1.07;;;10.60;62.00;;;10.89;52.71;97440.69;5044143;28;20056;-58
2021/05/25 00:55:31;;;;;;;1.07;0.80;;;10.60;62.10;;;10.96;52.17;97435.53;5044123;28;20140;-53
2021/05/25 00:58:02;;;;;;;2.23;1.00;;;10.60;62.30;;;10.95;52.47;97432.06;5045858;28;20086;-52
2021/05/25 01:00:37;;;;;;;0.73;0.73;;;10.60;62.20;;;10.93;52.81;97438.53;5045024;28;20048;-51
2021/05/25 01:03:08;;;;;;;0.80;0.77;;;10.60;62.60;;;10.92;52.89;97440.38;5044861;28;20057;-49
2021/05/25 01:05:37;;;;;;;1.10;0.70;;;10.60;62.90;;;10.91;53.16;97440.53;5027597;28;20251;-50
2021/05/25 01:08:07;;;;;;;2.27;0.80;;;10.50;63.50;;;10.87;53.36;97450.69;5044263;28;20052;-51
2021/05/25 01:10:41;;;;;;;1.40;0.90;;;10.50;64.50;;;10.88;53.22;97444.38;5042919;28;20048;-53
2021/05/25 01:13:23;;;;;;;1.52;0.77;;;10.40;64.20;;;10.85;53.59;97444.69;5043877;28;20368;-53
2021/05/25 01:15:52;;;;;;;1.57;1.27;;;10.40;65.00;;;10.83;53.68;97433.38;5029221;28;20049;-54
2021/05/25 01:18:20;;;;;;;1.57;0.70;;;10.40;64.70;;;10.82;54.31;97439.72;5044169;28;20355;-48
2021/05/25 01:20:50;;;;;;;1.63;0.83;;;10.40;65.00;;;10.83;54.32;97438.69;5044524;28;20049;-52
2021/05/25 01:23:19;;;;;;;0.93;0.70;;;10.40;65.20;;;10.83;54.38;97433.38;5044789;28;20057;-48
2021/05/25 01:25:48;;;;;;;1.40;0.90;;;10.50;65.30;;;10.83;54.62;97431.53;5042718;28;20254;-54
2021/05/25 01:28:21;;;;;;;2.30;1.17;;;10.40;65.90;;;10.81;54.54;97436.19;5027471;28;20740;-50
2021/05/25 01:30:52;;;;;;;5.73;1.00;;;10.40;65.60;;;10.79;54.51;97438.19;5044936;28;20059;-50
2021/05/25 01:33:24;;;;;;;1.20;0.87;;;10.40;65.80;;;10.78;54.69;97435.72;5045549;28;20334;-51
2021/05/25 01:35:53;;;;;;;1.47;0.87;;;10.40;66.10;;;10.77;54.66;97442.03;5043448;28;20053;-52
2021/05/25 01:38:23;;;;;;;2.00;0.90;;;10.30;66.60;;;10.77;54.80;97447.38;5043828;28;20061;-48
2021/05/25 01:40:55;;;;;;;2.10;1.00;;;10.30;66.00;;;10.77;55.03;97448.19;5045045;28;20246;-52
2021/05/25 01:43:24;;;;;;;1.40;0.80;;;10.30;66.30;;;10.73;54.48;97446.88;5026659;28;20061;-49
2021/05/25 01:45:53;;;;;;;2.80;2.17;;;10.20;66.20;;;10.72;54.93;97444.38;5043489;28;20067;-53
2021/05/25 01:48:21;;;;;;;1.90;0.73;;;10.20;66.50;;;10.72;54.66;97444.38;5027274;28;20397;-49
2021/05/25 01:50:49;;;;;;;1.30;0.90;;;10.20;66.70;;;10.72;54.67;97431.91;5044278;28;20037;-49
2021/05/25 01:53:21;;;;;;;1.07;0.80;;;10.20;67.40;;;10.74;54.90;97439.69;5048612;28;20051;-52
2021/05/25 01:55:54;;;;;;;1.67;0.80;;;10.20;67.00;;;10.70;55.41;97449.88;5048349;28;20044;-50
2021/05/25 01:58:33;;;;;;;3.43;1.13;;;10.20;67.50;;;10.70;55.60;97457.88;5031115;28;20048;-48
2021/05/25 02:01:07;;;;;;;2.23;0.97;;;10.20;67.80;;;10.61;56.16;97457.03;5048153;28;20060;-58
2021/05/25 02:03:36;;;;;;;;;;;10.30;67.70;;;10.59;57.16;97472.31;5047658;28;20057;-58
2021/05/25 02:06:06;;;;;;;2.43;0.93;;;10.30;69.30;;;10.62;56.61;97460.50;5046672;28;20233;-56
2021/05/25 02:08:35;;;;;;;4.00;1.10;;;10.30;68.30;;;10.60;56.75;97455.38;5045373;28;20057;-58
2021/05/25 02:11:07;;;;;;;2.50;0.83;;;10.20;68.70;;;10.59;56.60;97448.38;5046690;28;20059;-56
2021/05/25 02:13:39;;;;;;;2.40;1.50;;;10.20;68.60;;;10.60;56.87;97466.03;5048768;28;20289;-58
2021/05/25 02:16:14;;;;;;;3.13;1.10;;;10.20;69.20;;;10.57;57.64;97469.00;5047727;28;20051;-58
2021/05/25 02:18:48;;;;;;;1.23;0.90;;;10.20;68.60;;;10.62;56.45;97465.81;5047716;28;20583;-58
2021/05/25 02:21:20;;;;;;;4.07;1.40;;;10.30;68.50;;;10.61;56.66;97461.53;5046790;28;20071;-57
2021/05/25 02:23:50;;;;;;;4.97;0.97;;;10.20;69.00;;;10.59;56.89;97474.16;5048498;28;20045;-58
2021/05/25 02:26:18;;;;;;;3.97;1.10;;;10.20;68.80;;;10.58;56.83;97464.50;5046536;28;20067;-58
2021/05/25 02:28:47;;;;;;;1.50;1.07;;;10.10;69.00;;;10.59;56.81;97474.16;5046170;28;20052;-57
2021/05/25 02:31:15;;;;;;;0.77;0.70;;;10.10;69.20;;;10.57;57.06;97476.16;5029237;28;20075;-56
2021/05/25 02:33:43;;;;;;;3.60;1.20;;;10.20;68.90;;;10.62;57.00;97476.47;5048299;28;20052;-59
2021/05/25 02:36:11;;;;;;;1.90;1.00;;;10.20;68.70;;;10.59;56.71;97472.31;5046357;28;20059;-58
2021/05/25 02:38:40;;;;;;;1.93;1.00;;;10.20;68.80;;;10.61;57.06;97470.31;5046993;28;20057;-59
2021/05/25 02:41:08;;;;;;;3.33;1.00;;;10.20;69.10;;;10.54;57.65;97471.16;5047208;28;20624;-58
2021/05/25 02:43:37;;;;;;;2.87;0.73;;;10.10;69.10;;;10.56;56.74;97458.50;5046823;28;20055;-59
2021/05/25 02:46:05;;;;;;;4.40;1.50;;;10.10;69.20;;;10.58;56.88;97477.81;5046638;28;20056;-60
2021/05/25 02:48:33;;;;;;;4.80;1.30;;;10.20;68.70;;;10.57;56.69;97476.97;5046064;28;20053;-59
2021/05/25 02:51:01;;;;;;;2.00;0.93;;;10.10;68.80;;;10.56;56.35;97485.13;5047136;28;20057;-58
2021/05/25 02:53:29;;;;;;;1.13;0.93;;;10.10;68.20;;;10.54;56.11;97484.47;5046325;28;20057;-58
2021/05/25 02:55:57;;;;;;;1.07;0.80;;;10.10;68.00;;;10.55;56.36;97478.16;5047626;28;20059;-58
2021/05/25 02:58:25;;;;;;;1.97;0.90;;;10.10;67.60;;;10.59;55.80;97484.81;5045624;28;20057;-59
2021/05/25 03:00:54;;;;;;;5.23;0.90;;;10.10;67.30;;;10.56;55.48;97495.78;5045830;28;20063;-57
2021/05/25 03:03:22;;;;;;;4.37;1.17;;;10.10;67.10;;;10.48;55.71;97487.78;5046778;28;20052;-59
2021/05/25 03:05:50;;;;;;;1.93;0.83;;;10.00;66.90;;;10.47;55.34;97494.09;5029003;28;20056;-53
2021/05/25 03:08:18;;;;;;;2.03;0.90;;;10.00;66.60;;;10.46;55.38;97482.63;5046352;28;20044;-58
2021/05/25 03:10:49;;;;;;;1.27;0.80;;;10.00;66.40;;;10.44;55.13;97477.47;5046040;28;20047;-58
2021/05/25 03:13:18;;;;;;;1.13;0.97;;;9.90;66.40;;;10.43;54.85;97469.66;5029804;28;20358;-48
2021/05/25 03:15:48;;;;;;;2.77;1.20;;;9.90;66.60;;;10.38;55.29;97475.47;5046391;28;20362;-52
2021/05/25 03:18:17;;;;;;;1.83;0.67;;;9.90;66.80;;;10.35;55.13;97473.16;5046584;28;20052;-52
2021/05/25 03:20:48;;;;;;;2.20;1.00;;;9.80;67.00;;;10.33;55.21;97472.47;5047540;28;20045;-50
2021/05/25 03:23:18;;;;;;;2.70;1.50;;;9.80;66.90;;;10.29;55.01;97473.75;5046575;28;20052;-57
2021/05/25 03:25:48;;;;;;;1.10;0.80;;;9.70;66.90;;;10.30;55.16;97475.44;5062291;28;20060;-53
2021/05/25 03:28:17;;;;;;;1.37;0.87;;;9.80;66.70;;;10.27;55.36;97469.59;5045968;28;20053;-58
2021/05/25 03:30:45;;;;;;;2.47;1.10;;;9.80;66.70;;;10.22;55.08;97470.91;5046068;28;20051;-50
2021/05/25 03:33:13;;;;;;;2.80;0.70;;;9.70;66.60;;;10.21;55.08;97474.56;5044088;28;20049;-55
2021/05/25 03:35:42;;;;;;;1.63;1.07;;;9.70;66.70;;;10.15;55.35;97477.03;5044894;28;20061;-58
2021/05/25 03:38:10;;;;;;;1.90;1.00;;;9.60;66.80;;;10.11;55.45;97483.69;5044896;28;20051;-60
2021/05/25 03:40:39;;;;;;;3.17;1.10;;;9.60;66.80;;;10.09;55.35;97481.19;5044946;28;20045;-60
2021/05/25 03:43:07;;;;;;;5.00;0.87;;;9.60;66.90;;;10.01;55.47;97482.00;5046025;28;20044;-60
2021/05/25 03:45:35;;;;;;;1.00;0.80;;;9.60;66.80;;;10.00;55.52;97474.16;5044863;28;20045;-60
2021/05/25 03:48:04;;;;;;;2.30;0.80;;;9.60;66.50;;;10.01;55.42;97484.66;5046730;28;20053;-58
2021/05/25 03:50:32;;;;;;;3.33;1.57;;;9.60;66.40;;;9.99;55.35;97483.16;5045317;28;20040;-58
2021/05/25 03:53:00;;;;;;;2.97;0.90;;;9.60;66.10;;;9.99;55.43;97483.97;5046005;28;20045;-58
2021/05/25 04:01:06;;;;;;;2.27;0.80;;;9.60;65.40;;;9.91;54.99;97491.13;5045783;28;20235;-59
2021/05/25 04:03:35;;;;;;;2.30;0.90;;;9.60;65.20;;;9.94;54.83;97491.59;5045943;28;20533;-59
2021/05/25 04:06:03;;;;;;;5.40;2.20;;;9.50;65.10;;;9.91;54.76;97501.75;5045643;28;20041;-59
2021/05/25 04:08:31;;;;;;;7.00;3.10;;;9.40;65.20;;;9.92;54.53;97504.22;5045847;28;20246;-59
2021/05/25 04:10:59;;;;;;;3.93;2.90;;;9.40;65.30;;;9.96;54.48;97502.09;5046032;28;20291;-59
2021/05/25 04:13:29;;;;;;;3.70;1.60;;;9.50;65.10;;;9.86;54.46;97507.53;5044691;28;20055;-59
2021/05/25 04:15:57;;;;;;;3.73;1.97;;;9.40;65.20;;;9.83;54.51;97508.69;5044033;28;20041;-59
2021/05/25 04:18:25;;;;;;;2.07;0.90;;;9.30;65.50;;;9.86;54.55;97510.19;5043710;28;20049;-59
2021/05/25 04:20:54;;;;;;;3.20;2.07;;;9.40;65.30;;;9.88;54.56;97518.03;5045052;28;20367;-59
2021/05/25 04:23:22;;;;;;;4.90;3.60;;;9.50;65.00;;;9.93;54.52;97521.03;5046007;28;20365;-59
2021/05/25 04:25:51;;;;;;;2.93;1.67;;;9.50;64.80;;;9.96;54.16;97510.88;5045539;28;20251;-59
2021/05/25 04:28:19;;;;;;;1.77;0.80;;;9.50;64.80;;;9.91;54.24;97504.41;5044279;28;20057;-60
2021/05/25 04:30:47;;;;;;;4.63;2.00;;;9.50;64.90;;;9.90;54.21;97514.19;5054511;23;20046;-59
2021/05/25 04:33:16;;;;;;;4.13;1.40;;;9.40;64.80;;;9.92;54.24;97511.38;5060749;28;20346;-60
2021/05/25 04:35:44;;;;;;;3.20;1.03;;;9.50;65.10;;;9.86;54.50;97515.50;5062390;28;20051;-60
2021/05/25 04:38:13;;;;;;;1.90;1.27;;;9.50;65.10;;;9.85;54.79;97520.00;5064971;28;20114;-60
2021/05/25 04:40:41;;;;;;;2.20;1.00;;;9.40;65.20;;;9.89;54.56;97523.19;5065014;28;20052;-60
2021/05/25 04:43:10;;;;;;;1.23;0.73;;;9.50;65.30;;;9.88;54.57;97537.44;5063395;28;20138;-59
2021/05/25 04:45:39;;;;;;;2.67;0.87;;;9.50;65.20;;;9.92;54.81;97540.63;5064674;28;20054;-59
2021/05/25 04:48:09;;;;;;;1.50;0.97;;;9.60;65.20;;;9.96;54.80;97548.13;5063861;28;20048;-59
2021/05/25 04:50:40;;;;;;;3.43;0.73;;;9.60;65.10;;;10.03;54.67;97546.50;5065370;28;20059;-60
2021/05/25 04:53:08;;;;;;;2.50;1.20;;;9.70;65.00;;;10.13;54.74;97548.19;5064904;28;20220;-60
2021/05/25 04:55:37;;;;;;;2.53;0.80;;;9.80;64.60;;;10.21;54.51;97548.22;5064422;28;20063;-60
2021/05/25 04:58:05;;;;;;;1.77;0.90;;;9.90;64.60;;;10.28;54.25;97553.75;5064049;28;20055;-59
2021/05/25 05:00:33;;;;;;;3.07;1.00;;;10.00;64.30;;;10.32;54.53;97563.09;5064061;28;20060;-59
2021/05/25 05:03:02;;;;;;;2.60;0.90;;;10.00;64.20;;;10.36;54.38;97543.97;5063040;28;20059;-60
2021/05/25 05:05:30;;;;;;;2.20;1.00;;;10.00;64.10;;;10.36;53.85;97551.13;5065439;28;20062;-59
2021/05/25 05:07:58;;;;;;;3.37;0.90;;;10.10;63.40;;;10.38;53.93;97551.81;5064045;28;20075;-60
2021/05/25 05:10:26;;;;;;;1.77;0.87;;;10.10;63.40;;;10.44;53.66;97559.13;5063440;28;20041;-60
2021/05/25 05:12:55;;;;;;;1.30;0.90;;;10.20;63.10;;;10.42;53.54;97555.81;5064617;28;20358;-59
2021/05/25 05:15:23;;;;;;;1.83;0.87;;;10.20;62.90;;;10.42;53.28;97561.94;5063962;28;20257;-60
2021/05/25 05:17:51;;;;;;;1.93;0.90;;;10.20;62.20;;;10.42;53.17;97561.94;5064027;28;20062;-59
2021/05/25 05:20:19;;;;;;;0.70;0.70;;;10.20;61.50;;;10.50;52.83;97569.13;5064715;28;20245;-59
2021/05/25 05:22:47;;;;;;;1.23;0.70;;;10.30;61.60;;;10.37;51.90;97571.41;5031383;28;20364;-59
2021/05/25 05:25:16;;;;;;;0.80;0.63;;;10.10;60.50;;;10.41;52.17;97572.75;5064004;28;20065;-58
2021/05/25 05:27:44;;;;;;;1.00;0.80;;;10.20;61.00;;;10.37;51.46;97577.59;5068463;28;20057;-58
2021/05/25 05:30:13;;;;;;;0.70;0.70;;;10.30;59.50;;;10.38;52.00;97579.25;5068812;28;20052;-59
2021/05/25 05:32:42;;;;;;;1.60;0.77;;;10.30;59.60;;;10.39;51.74;97574.75;5067968;28;20352;-53
2021/05/25 05:35:10;;;;;;;1.07;0.80;;;10.30;59.60;;;10.37;51.17;97580.25;5068520;28;20063;-59
2021/05/25 05:37:38;;;;;;;0.50;0.50;;;10.40;58.70;;;10.35;51.25;97582.25;5067047;28;20066;-59
2021/05/25 05:40:09;;;;;;;1.70;0.83;;;10.30;58.80;;;10.43;51.00;97592.91;5069305;28;20053;-58
2021/05/25 05:42:59;;;;;;;2.00;0.70;;;10.40;58.50;;;10.44;51.20;97578.59;5068365;28;20051;-54
2021/05/25 05:45:29;;;;;;;1.60;0.60;;;10.40;59.20;;;10.48;51.01;97575.63;5067244;28;20071;-58
2021/05/25 05:47:58;;;;;;;1.27;0.80;;;10.40;58.60;;;10.53;50.97;97587.44;5066002;28;20241;-58
2021/05/25 05:50:26;;;;;;;0.60;0.60;;;10.50;58.40;;;10.59;50.70;97585.97;5067568;28;20048;-56
2021/05/25 05:52:54;;;;;;;0.97;0.80;;;10.50;57.70;;;10.53;50.44;97589.28;5069297;28;20196;-54
2021/05/25 05:55:23;;;;;;;2.17;0.80;;;10.50;58.40;;;10.53;50.13;97591.94;5068541;28;20051;-58
2021/05/25 05:57:53;;;;;;;4.60;1.03;;;10.50;58.00;;;10.63;50.29;97589.97;5048864;28;20048;-59
2021/05/25 06:00:23;;;;;;;1.73;0.80;;;10.70;57.90;;;10.73;50.35;97589.81;5067387;28;20262;-58
2021/05/25 06:02:51;;;;;;;1.17;0.77;;;10.80;57.80;;;10.79;49.96;97597.16;5067884;28;20361;-58
2021/05/25 06:05:19;;;;;;;2.30;0.70;;;10.90;57.00;;;10.87;49.54;97605.16;5067971;28;20070;-58
2021/05/25 06:07:47;;;;;;;0.93;0.82;;;10.90;56.10;;;10.81;48.98;97597.81;5066427;28;20052;-59
2021/05/25 06:10:17;;;;;;;5.40;2.33;;;10.90;56.20;;;10.85;48.99;97599.16;5067331;28;20356;-59
2021/05/25 06:12:45;;;;;;;0.93;0.60;;;10.90;56.40;;;10.82;48.63;97600.31;5067342;28;20059;-58
2021/05/25 06:15:14;;;;;;;4.32;3.00;;;10.90;56.10;;;10.87;48.53;97596.34;5068816;28;20234;-58
2021/05/25 06:17:42;;;;;;;0.80;0.73;;;10.90;54.90;;;10.88;48.63;97596.19;5068148;28;20619;-58
2021/05/25 06:20:12;;;;;;;5.23;1.73;;;10.90;55.30;;;10.82;48.19;97618.16;5068688;28;20057;-55
2021/05/25 06:22:40;;;;;;;1.08;0.98;;;10.90;55.00;;;10.87;48.37;97599.81;5066508;28;20057;-56
2021/05/25 06:25:10;;;;;;;1.30;0.77;;;11.00;55.20;;;10.72;47.27;97636.94;5054822;28;20057;-58
2021/05/25 06:27:39;;;;;;;1.13;0.60;;;10.90;54.10;;;10.91;47.97;97601.16;5025325;28;20057;-55
2021/05/25 06:30:10;;;;;;;2.33;0.85;;;11.00;54.90;;;11.06;47.70;97605.84;5045377;28;20075;-55
2021/05/25 06:32:38;;;;;;;1.23;0.80;;;11.10;54.90;;;11.06;47.40;97604.00;5046824;28;20472;-56
2021/05/25 06:35:08;;;;;;;2.08;0.98;;;11.20;54.10;;;11.22;47.20;97614.69;5044911;28;20053;-58
2021/05/25 06:37:37;;;;;;;2.03;0.80;;;11.30;54.00;;;11.15;47.39;97626.19;5046148;28;20053;-59
2021/05/25 06:40:06;;;;;;;0.60;0.60;;;11.40;53.70;;;11.27;47.04;97616.84;5045998;28;20049;-52
2021/05/25 06:42:34;;;;;;;1.50;0.95;;;11.40;53.70;;;11.37;46.94;97616.69;5046380;28;20067;-52
2021/05/25 06:45:05;;;;;;;1.67;0.80;;;11.50;53.10;;;11.37;46.14;97614.03;5047234;28;20342;-49
2021/05/25 06:47:33;;;;;;;1.25;0.82;;;11.50;53.20;;;11.35;45.41;97608.84;5048108;28;20342;-50
2021/05/25 06:50:03;;;;;;;1.17;0.73;;;11.50;52.00;;;11.38;46.47;97613.00;5046843;28;20277;-52
2021/05/25 06:52:32;;;;;;;2.85;0.95;;;11.50;53.00;;;11.45;46.82;97616.69;5046591;28;20053;-53
2021/05/25 06:55:04;;;;;;;1.10;0.80;;;11.50;52.90;;;11.35;45.87;97635.50;5038720;28;20239;-53
2021/05/25 06:57:32;;;;;;;1.13;0.93;;;11.40;52.40;;;11.46;46.28;97618.34;5047626;28;20047;-52
2021/05/25 07:00:00;;;;;;;2.55;0.93;;;11.50;53.70;;;11.47;46.00;97622.66;5046501;28;20049;-58
2021/05/25 07:02:29;;;;;;;2.72;0.75;;;11.50;53.20;;;11.57;46.07;97636.69;5045531;28;20053;-58
2021/05/25 07:04:57;;;;;;;0.88;0.80;;;11.60;52.40;;;11.46;45.97;97618.34;5046467;28;20068;-57
2021/05/25 07:07:25;;;;;;;0.80;0.70;;;11.60;52.40;;;11.41;46.28;97626.84;5046272;28;20047;-58
2021/05/25 07:09:54;;;;;;;3.08;0.75;;;11.60;52.80;;;11.56;46.44;97623.53;5045231;28;20242;-58
2021/05/25 07:12:22;;;;;;;1.42;0.70;;;11.70;53.50;;;11.58;46.06;97626.84;5045488;28;20051;-58
2021/05/25 07:14:50;;;;;;;1.13;0.70;;;11.80;52.50;;;11.56;46.29;97626.19;5046316;28;20208;-58
2021/05/25 07:17:19;;;;;;;0.98;0.70;;;11.70;52.50;;;11.59;46.19;97620.50;5044848;28;20057;-57
2021/05/25 07:19:47;;;;;;;1.13;0.80;;;11.70;52.40;;;11.54;45.98;97621.00;5046997;28;20049;-56
2021/05/25 07:22:15;;;;;;;0.95;0.70;;;11.70;52.60;;;11.58;46.60;97635.66;5047933;28;20056;-57
2021/05/25 07:24:46;;;;;;;0.95;0.60;;;11.70;52.80;;;11.72;46.23;97622.66;5046723;28;20045;-57
2021/05/25 07:27:14;;;;;;;1.85;0.68;;;11.90;53.00;;;11.83;46.31;97635.66;5045754;28;20048;-56
2021/05/25 07:29:43;;;;;;;1.25;1.10;;;12.00;52.90;;;11.90;46.25;97641.16;5046305;28;20072;-53
2021/05/25 07:32:11;;;;;;;1.27;1.00;;;12.20;52.50;;;11.72;45.53;97646.66;5028211;28;20041;-56
2021/05/25 07:34:40;;;;;;;2.50;1.02;;;11.90;51.60;;;11.67;44.93;97655.19;5046361;28;20056;-57
2021/05/25 07:37:08;;;;;;;2.03;0.70;;;11.80;51.00;;;11.69;44.66;97645.19;5046639;28;20235;-56
2021/05/25 07:39:36;;;;;;;1.50;0.82;;;11.80;50.90;;;11.46;44.89;97642.34;5044691;28;20539;-53
2021/05/25 07:42:05;;;;;;;1.65;0.98;;;11.60;51.40;;;11.51;45.37;97644.50;5042265;28;20059;-57
2021/05/25 07:44:33;;;;;;;2.30;0.85;;;11.60;51.90;;;11.43;45.72;97662.16;5065354;28;20064;-58
2021/05/25 07:47:02;;;;;;;2.33;0.75;;;11.50;52.70;;;11.27;45.43;97658.66;5064124;28;20067;-55
2021/05/25 07:49:38;;;;;;;3.07;0.93;;;11.30;52.00;;;11.24;45.46;97657.16;5063224;28;20052;-58
2021/05/25 07:52:08;;;;;;;0.60;0.60;;;11.30;52.00;;;11.24;44.70;97678.47;5034110;28;20055;-58
2021/05/25 07:54:46;;;;;;;1.80;1.48;;;11.30;51.30;;;11.32;45.58;97669.66;5045797;28;20462;-55
2021/05/25 07:57:15;;;;;;;4.25;0.90;;;11.40;52.00;;;11.29;45.54;97675.31;5043972;28;20065;-56
2021/05/25 07:59:45;;;;;;;0.80;0.70;;;11.40;52.10;;;11.33;45.89;97684.66;5037519;28;20056;-57
2021/05/25 08:02:14;;;;;;;0.90;0.80;;;11.40;52.10;;;11.37;45.75;97668.16;5028288;28;20045;-54
2021/05/25 08:04:45;;;;;;;2.80;0.80;;;11.50;52.20;;;11.45;45.32;97670.00;5034136;28;20055;-56
2021/05/25 08:07:16;;;;;;;0.82;0.60;;;11.60;51.80;;;11.39;45.41;97687.47;5031806;28;20063;-57
2021/05/25 08:09:51;;;;;;;3.00;1.15;;;11.60;51.60;;;11.30;45.59;97676.97;5035165;28;20274;-57
2021/05/25 08:12:35;;;;;;;1.77;0.73;;;11.50;51.80;;;11.33;45.77;97687.31;5065277;28;20438;-55
2021/05/25 08:15:10;;;;;;;2.10;1.00;;;11.50;52.30;;;11.41;46.19;97690.00;5053401;28;20218;-54
2021/05/25 08:17:52;;;;;;;1.42;1.15;;;11.50;52.70;;;11.46;46.08;97686.81;5045446;28;20059;-54
2021/05/25 08:20:21;;;;;;;1.40;0.85;;;11.70;52.80;;;11.65;45.97;97686.50;5023345;28;20058;-56
2021/05/25 08:23:12;;;;;;;2.72;1.10;;;11.80;52.40;;;11.56;45.85;97701.66;5042102;28;20057;-54
2021/05/25 08:25:43;;;;;;;1.27;0.63;;;11.70;51.90;;;11.56;44.82;97706.16;5039654;28;20049;-56
2021/05/25 08:28:13;;;;;;;1.88;1.10;;;11.70;51.30;;;11.74;46.04;97725.50;5041256;28;20057;-56
2021/05/25 08:30:43;;;;;;;2.45;0.88;;;11.90;52.20;;;11.75;45.29;97705.00;5040271;28;20041;-56
2021/05/25 08:33:16;;;;;;;2.33;0.85;;;12.00;51.30;;;11.83;45.29;97713.00;5039914;28;20355;-55
2021/05/25 08:35:48;;;;;;;0.83;0.77;;;12.00;51.50;;;11.49;44.72;97721.16;5041274;28;20372;-52
2021/05/25 08:38:20;;;;;;;2.28;0.90;;;11.50;51.30;;;11.69;45.68;97727.00;5041308;28;20119;-56
2021/05/25 08:40:55;;;;;;;0.85;0.85;;;11.70;52.30;;;11.31;46.21;97706.13;5039715;28;20373;-56
2021/05/25 08:43:24;;;;;;;0.70;0.68;;;11.40;52.90;;;11.34;45.98;97740.47;5040516;28;20262;-55
2021/05/25 08:45:52;;;;;;;0.80;0.80;;;11.50;52.90;;;11.27;46.80;97744.78;5041751;28;20063;-55
2021/05/25 08:48:21;;;;;;;2.97;1.40;;;11.40;53.90;;;11.35;46.59;97742.13;5040908;28;20049;-55
2021/05/25 08:51:01;;;;;;;2.97;1.15;;;11.50;53.60;;;11.33;46.54;97746.78;5040525;28;20057;-59
2021/05/25 08:53:30;;;;;;;1.88;0.82;;;11.40;53.30;;;11.26;47.07;97748.41;5040213;28;20053;-54
2021/05/25 08:55:59;;;;;;;1.55;0.95;;;11.30;53.60;;;11.18;46.78;97783.88;5039997;28;20045;-53
2021/05/25 08:58:27;;;;;;;1.70;0.80;;;11.30;53.40;;;11.25;46.81;97757.44;5041354;28;20075;-55
2021/05/25 09:00:58;;;;;;;1.63;0.80;;;11.40;53.60;;;11.18;47.20;97770.56;5037271;28;20071;-57
2021/05/25 09:03:26;;;;;;;1.55;0.95;;;11.30;54.50;;;11.33;47.24;97764.63;5039108;28;20478;-52
2021/05/25 09:06:08;;;;;;;2.03;1.20;;;11.40;54.30;;;11.29;46.72;97774.75;5041665;28;20057;-44
2021/05/25 09:08:37;;;;;;;3.60;1.08;;;11.40;53.50;;;11.36;46.99;97759.78;5040159;28;20255;-44
2021/05/25 09:11:11;;;;;;;2.92;1.05;;;11.50;53.90;;;11.45;47.51;97759.81;5035766;28;20048;-45
2021/05/25 09:13:40;;;;;;;3.85;0.85;;;11.50;54.50;;;11.56;47.32;97772.81;5040710;28;20053;-43
2021/05/25 09:16:09;;;;;;;2.22;1.00;;;11.70;54.10;;;11.58;46.57;97773.50;5040969;28;20116;-49
2021/05/25 09:18:50;;;;;;;7.88;1.02;;;11.70;53.20;;;11.36;47.60;97761.59;5039890;28;20063;-47
2021/05/25 09:21:47;;;;;;;3.17;1.08;;;11.50;54.50;;;11.55;46.88;97782.63;5040147;28;20045;-46
2021/05/25 09:24:16;;;;;;;2.92;1.08;;;11.70;54.00;;;11.54;46.81;97791.66;5025708;28;20381;-46
2021/05/25 09:26:49;;;;;;;2.10;0.90;;;11.70;53.60;;;11.23;47.44;97788.75;5026709;28;20059;-49
2021/05/25 09:29:17;;;;;;;2.47;0.80;;;11.40;54.70;;;11.43;47.54;97775.97;5028926;28;20061;-47
2021/05/25 09:31:51;;;;;;;4.90;1.38;;;11.50;54.40;;;11.58;47.31;97790.31;5025240;28;20045;-62
2021/05/25 09:34:24;;;;;;;3.25;1.95;;;11.80;53.60;;;11.62;46.77;97788.16;5025274;28;20053;-50
2021/05/25 09:37:04;;;;;;;4.68;1.05;;;11.80;53.50;;;11.59;46.07;97783.16;5007662;28;20053;-52
2021/05/25 09:39:54;;;;;;;0.88;0.55;;;11.80;53.10;;;11.51;46.36;97785.81;5030476;28;20075;-52
2021/05/25 09:42:22;;;;;;;1.83;1.10;;;11.70;53.20;;;11.74;46.75;97783.34;5027612;28;20246;-50
2021/05/25 09:45:06;;;;;;;3.67;1.88;;;11.90;53.40;;;11.48;46.48;97778.97;5026398;28;20061;-52
2021/05/25 09:47:53;;;;;;;2.17;0.90;;;11.70;53.30;;;11.66;45.97;97772.66;5027879;28;20064;-49
2021/05/25 09:50:25;;;;;;;2.78;1.02;;;11.80;52.80;;;11.62;45.33;97794.31;5026851;28;20355;-50
2021/05/25 09:53:07;;;;;;;1.60;0.88;;;11.70;51.90;;;11.68;45.39;97792.84;5027625;28;20053;-48
2021/05/25 09:55:57;;;;;;;3.30;0.98;;;11.90;51.70;;;11.79;45.96;97789.03;5027479;28;20059;-49
2021/05/25 09:58:38;;;;;;;3.30;1.05;;;12.10;52.00;;;11.91;46.18;97793.06;5025982;28;20045;-49
2021/05/25 10:01:09;;;;;;;2.50;0.80;;;12.10;52.60;;;11.90;46.32;97793.22;5027228;28;20071;-49
2021/05/25 10:03:52;;;;;;;3.85;1.20;;;12.10;52.90;;;11.80;46.94;97809.34;5027383;28;20053;-50
2021/05/25 10:06:21;;;;;;;2.13;1.15;;;12.10;53.90;;;11.54;48.01;97794.31;5024240;28;20059;-53
2021/05/25 10:08:50;;;;;;;2.03;0.68;;;11.70;54.60;;;11.43;48.78;97810.63;5027233;28;20343;-52
2021/05/25 10:11:19;;;;;;;4.10;1.13;;;11.50;56.20;;;11.38;48.97;97804.91;5025663;28;20235;-53
2021/05/25 10:13:48;;;;;;;3.65;0.90;;;11.50;56.80;;;11.42;50.13;97800.97;5026194;28;20076;-47
2021/05/25 10:16:25;;;;;;;2.25;1.58;;;11.50;58.70;;;11.25;50.56;97807.25;5025810;28;20053;-50
2021/05/25 10:21:52;;;;;;;2.67;1.00;;;11.40;59.50;;;11.17;52.96;97838.19;5019940;28;19925;-55
2021/05/25 10:24:21;;;;;;;4.13;1.02;;;11.20;62.00;;;10.92;54.93;97845.22;5027265;28;20053;-46
2021/05/25 10:26:51;;;;;;;3.63;1.20;;;11.00;64.60;;;11.11;55.43;97836.16;5024687;28;20045;-51
2021/05/25 10:29:19;;;;;;;2.95;1.50;;;11.20;65.00;;;11.23;54.45;97840.19;5025227;28;20314;-53
2021/05/25 10:31:58;;;;;;;2.63;1.33;;;11.40;62.60;;;11.41;53.19;97844.59;5026482;28;20045;-49
2021/05/25 10:34:34;;;;;;;4.60;2.00;;;11.60;60.80;;;11.51;51.38;97850.63;5023495;28;20037;-49
2021/05/25 10:37:05;;;;;;;2.50;1.60;;;11.70;59.50;;;11.40;52.79;97858.94;5025842;28;20060;-46
2021/05/25 10:39:40;;;;;;;1.38;1.20;;;11.60;61.90;;;11.45;54.05;97861.94;5025450;28;20067;-46
2021/05/25 10:45:15;;;;;;;1.40;0.90;;;11.70;58.90;;;11.29;52.23;97870.72;5026598;28;20073;-47